createdAt,value
2022-10-10T12:32:46.810Z,25.70
2022-10-10T12:35:32.977Z,25.40
2022-10-10T12:38:12.585Z,25.90
2022-10-10T12:41:07.540Z,25.50
2022-10-10T12:43:43.479Z,25.30
2022-10-10T12:46:28.747Z,25.10
2022-10-10T12:49:26.617Z,25.50
2022-10-10T12:52:21.701Z,25.50
2022-10-10T12:54:52.158Z,25.10
2022-10-10T12:57:33.391Z,25.40
2022-10-10T13:00:16.424Z,25.70
2022-10-10T13:03:21.246Z,25.70
2022-10-10T13:05:50.339Z,25.80
2022-10-10T13:08:22.616Z,25.80
2022-10-10T13:11:04.160Z,25.60
2022-10-10T13:13:31.915Z,25.70
2022-10-10T13:16:16.206Z,25.80
2022-10-10T13:18:51.078Z,25.60
2022-10-10T13:21:21.764Z,25.40
2022-10-10T13:26:45.581Z,25.10
2022-10-10T13:29:18.930Z,25.00
2022-10-10T13:31:46.447Z,24.60
2022-10-10T13:34:23.426Z,24.30
2022-10-10T13:36:58.897Z,24.10
2022-10-10T13:39:27.437Z,23.90
2022-10-10T13:41:55.982Z,23.50
2022-10-10T13:44:30.410Z,23.40
2022-10-10T13:46:57.963Z,23.30
2022-10-10T13:49:29.480Z,23.20
2022-10-10T13:52:05.644Z,23.40
2022-10-10T13:54:37.290Z,23.80
2022-10-10T13:57:10.294Z,23.70
2022-10-10T13:59:38.084Z,23.50
2022-10-10T14:02:21.501Z,23.50
2022-10-10T14:04:52.687Z,23.40
2022-10-10T14:07:30.517Z,23.30
2022-10-10T14:10:09.823Z,23.30
2022-10-10T14:12:48.722Z,23.60
2022-10-10T14:15:41.030Z,23.50
2022-10-10T14:18:21.175Z,23.60
2022-10-10T14:20:49.312Z,23.80
2022-10-10T14:23:17.691Z,23.90
2022-10-10T14:25:47.106Z,23.50
2022-10-10T14:28:34.607Z,23.70
2022-10-10T14:31:03.130Z,23.60
2022-10-10T14:33:30.936Z,23.50
2022-10-10T14:35:59.915Z,23.70
2022-10-10T14:38:27.459Z,23.80
2022-10-10T14:40:55.426Z,23.60
2022-10-10T14:43:23.635Z,23.30
2022-10-10T14:45:54.841Z,23.50
2022-10-10T14:48:22.518Z,23.70
2022-10-10T14:50:51.238Z,23.70
2022-10-10T14:53:18.882Z,24.00
2022-10-10T14:55:46.603Z,23.80
2022-10-10T14:58:19.584Z,23.70
2022-10-10T15:00:47.594Z,23.70
2022-10-10T15:03:15.052Z,23.70
2022-10-10T15:05:42.570Z,23.40
2022-10-10T15:08:14.207Z,23.50
2022-10-10T15:10:42.610Z,23.60
2022-10-10T15:13:13.577Z,23.70
2022-10-10T15:15:41.533Z,23.30
2022-10-10T15:18:26.704Z,23.40
2022-10-10T15:20:56.586Z,23.30
2022-10-10T15:23:24.006Z,23.50
2022-10-10T15:25:51.429Z,23.50
2022-10-10T15:28:18.818Z,23.50
2022-10-10T15:30:46.838Z,23.40
2022-10-10T15:33:14.235Z,23.20
2022-10-10T15:36:07.578Z,23.10
2022-10-10T15:38:29.850Z,23.10
2022-10-10T15:40:58.738Z,23.10
2022-10-10T15:43:27.910Z,23.00
2022-10-10T15:46:01.525Z,23.00
2022-10-10T15:48:28.830Z,23.00
2022-10-10T15:50:56.691Z,22.90
2022-10-10T15:53:24.018Z,22.80
2022-10-10T15:55:51.291Z,22.70
2022-10-10T15:58:18.606Z,22.60
2022-10-10T16:00:46.286Z,22.70
2022-10-10T16:03:13.723Z,22.70
2022-10-10T16:05:42.308Z,22.70
2022-10-10T16:08:13.440Z,22.60
2022-10-10T16:10:42.956Z,22.50
2022-10-10T16:13:10.935Z,22.60
2022-10-10T16:15:38.416Z,22.40
2022-10-10T16:18:05.744Z,22.50
2022-10-10T16:20:33.059Z,22.40
2022-10-10T16:23:00.453Z,22.30
2022-10-10T16:25:27.751Z,22.20
2022-10-10T16:27:55.155Z,22.20
2022-10-10T16:30:22.616Z,22.10
2022-10-10T16:32:50.024Z,22.00
2022-10-10T16:35:17.498Z,21.90
2022-10-10T16:37:44.858Z,21.80
2022-10-10T16:40:12.414Z,21.70
2022-10-10T16:42:39.752Z,21.70
2022-10-10T16:45:07.718Z,21.70
2022-10-10T16:47:35.445Z,21.90
2022-10-10T16:50:04.557Z,21.80
2022-10-10T16:52:37.619Z,21.80
2022-10-10T16:55:09.285Z,21.80
2022-10-10T16:57:36.936Z,21.70
2022-10-10T17:00:06.788Z,21.70
2022-10-10T17:02:34.489Z,21.60
2022-10-10T17:05:04.952Z,21.50
2022-10-10T17:07:32.275Z,21.40
2022-10-10T17:09:59.588Z,21.30
2022-10-10T17:12:26.916Z,21.20
2022-10-10T17:14:54.277Z,21.10
2022-10-10T17:17:22.609Z,21.20
2022-10-10T17:19:49.953Z,21.00
2022-10-10T17:22:17.507Z,21.10
2022-10-10T17:24:45.034Z,21.00
2022-10-10T17:27:12.526Z,21.00
2022-10-10T17:29:39.870Z,21.10
2022-10-10T17:32:07.228Z,21.10
2022-10-10T17:34:35.126Z,21.10
2022-10-10T17:37:02.774Z,21.10
2022-10-10T17:39:30.118Z,20.90
2022-10-10T17:41:57.438Z,21.00
2022-10-10T17:44:26.037Z,21.10
2022-10-10T17:46:53.884Z,21.00
2022-10-10T17:49:21.355Z,20.80
2022-10-10T17:51:48.716Z,20.80
2022-10-10T17:54:16.125Z,20.70
2022-10-10T17:56:44.703Z,20.70
2022-10-10T17:59:12.358Z,20.70
2022-10-10T18:01:39.986Z,20.70
2022-10-10T18:04:07.995Z,20.70
2022-10-10T18:06:36.921Z,20.60
2022-10-10T18:09:04.333Z,20.70
2022-10-10T18:11:32.042Z,20.70
2022-10-10T18:14:02.347Z,20.60
2022-10-10T18:16:33.940Z,20.60
2022-10-10T18:19:01.623Z,20.70
2022-10-10T18:21:29.159Z,20.70
2022-10-10T18:23:56.718Z,20.60
2022-10-10T18:26:27.146Z,20.60
2022-10-10T18:28:55.899Z,20.50
2022-10-10T18:31:27.550Z,20.50
2022-10-10T18:33:55.358Z,20.40
2022-10-10T18:36:28.283Z,20.40
2022-10-10T18:38:59.431Z,20.40
2022-10-10T18:41:32.790Z,20.30
2022-10-10T18:44:01.878Z,20.30
2022-10-10T18:46:29.313Z,20.20
2022-10-10T18:48:56.641Z,20.20
2022-10-10T18:51:26.195Z,20.10
2022-10-10T18:54:02.177Z,20.10
2022-10-10T18:56:31.987Z,20.10
2022-10-10T18:59:01.997Z,20.10
2022-10-10T19:01:34.364Z,20.00
2022-10-10T19:04:05.811Z,20.00
2022-10-10T19:06:34.194Z,20.00
2022-10-10T19:09:03.709Z,19.90
2022-10-10T19:11:33.807Z,19.90
2022-10-10T19:14:03.974Z,19.80
2022-10-10T19:16:31.596Z,19.70
2022-10-10T19:19:00.771Z,19.60
2022-10-10T19:21:30.324Z,19.60
2022-10-10T19:23:59.954Z,19.60
2022-10-10T19:26:33.280Z,19.60
2022-10-10T19:29:06.378Z,19.50
2022-10-10T19:31:35.513Z,19.50
2022-10-10T19:34:03.001Z,19.40
2022-10-10T19:36:30.470Z,19.30
2022-10-10T19:39:00.085Z,19.30
2022-10-10T19:41:27.605Z,19.30
2022-10-10T19:43:57.430Z,19.30
2022-10-10T19:46:27.002Z,19.30
2022-10-10T19:48:57.956Z,19.30
2022-10-10T19:51:27.715Z,19.20
2022-10-10T19:53:55.931Z,19.20
2022-10-10T19:56:24.598Z,19.20
2022-10-10T19:58:53.867Z,19.10
2022-10-10T20:01:26.854Z,18.90
2022-10-10T20:03:56.977Z,19.00
2022-10-10T20:06:24.502Z,18.80
2022-10-10T20:08:51.990Z,18.60
2022-10-10T20:11:23.236Z,18.50
2022-10-10T20:13:55.188Z,18.50
2022-10-10T20:16:23.087Z,18.50
2022-10-10T20:18:50.357Z,18.50
2022-10-10T20:21:24.062Z,18.40
2022-10-10T20:23:51.829Z,18.50
2022-10-10T20:26:21.818Z,18.50
2022-10-10T20:28:51.160Z,18.40
2022-10-10T20:31:33.263Z,18.40
2022-10-10T20:34:01.970Z,18.40
2022-10-10T20:36:31.498Z,18.30
2022-10-10T20:39:01.357Z,18.40
2022-10-10T20:41:31.683Z,18.30
2022-10-10T20:44:01.590Z,18.30
2022-10-10T20:46:32.320Z,18.30
2022-10-10T20:49:02.009Z,18.30
2022-10-10T20:51:29.876Z,18.20
2022-10-10T20:54:00.696Z,18.30
2022-10-10T20:56:30.147Z,18.20
2022-10-10T20:58:57.880Z,18.20
2022-10-10T21:01:27.433Z,18.20
2022-10-10T21:03:55.467Z,18.10
2022-10-10T21:06:26.221Z,18.10
2022-10-10T21:08:54.128Z,18.10
2022-10-10T21:11:22.827Z,18.00
2022-10-10T21:13:55.839Z,18.00
2022-10-10T21:16:28.867Z,18.10
2022-10-10T21:18:59.242Z,18.00
2022-10-10T21:21:32.530Z,17.90
2022-10-10T21:24:00.911Z,17.90
2022-10-10T21:26:29.444Z,18.00
2022-10-10T21:28:57.691Z,17.90
2022-10-10T21:31:36.185Z,17.90
2022-10-10T21:34:05.804Z,17.80
2022-10-10T21:36:33.859Z,17.80
2022-10-10T21:39:02.165Z,17.70
2022-10-10T21:41:29.620Z,17.70
2022-10-10T21:43:58.870Z,17.70
2022-10-10T21:46:35.885Z,17.70
2022-10-10T21:49:07.887Z,17.60
2022-10-10T21:51:38.397Z,17.60
2022-10-10T21:54:06.493Z,17.60
2022-10-10T21:56:34.075Z,17.60
2022-10-10T21:59:01.869Z,17.60
2022-10-10T22:01:33.244Z,17.50
2022-10-10T22:04:02.085Z,17.40
2022-10-10T22:06:29.832Z,17.40
2022-10-10T22:08:58.819Z,17.40
2022-10-10T22:11:27.794Z,17.30
2022-10-10T22:13:55.207Z,17.40
2022-10-10T22:16:22.688Z,17.40
2022-10-10T22:18:55.600Z,17.30
2022-10-10T22:21:30.048Z,17.40
2022-10-10T22:24:04.792Z,17.30
2022-10-10T22:26:33.732Z,17.40
2022-10-10T22:29:01.205Z,17.30
2022-10-10T22:31:29.299Z,17.20
2022-10-10T22:33:57.050Z,17.20
2022-10-10T22:36:24.507Z,17.20
2022-10-10T22:38:51.790Z,17.10
2022-10-10T22:41:19.087Z,17.20
2022-10-10T22:43:46.599Z,17.20
2022-10-10T22:46:13.927Z,17.00
2022-10-10T22:48:41.317Z,16.90
2022-10-10T22:51:15.125Z,16.80
2022-10-10T22:53:44.318Z,16.90
2022-10-10T22:56:15.305Z,16.90
2022-10-10T22:58:43.445Z,16.70
2022-10-10T23:01:18.042Z,16.70
2022-10-10T23:03:46.371Z,16.80
2022-10-10T23:06:14.088Z,16.80
2022-10-10T23:08:41.579Z,16.80
2022-10-10T23:11:08.901Z,16.70
2022-10-10T23:13:36.235Z,16.70
2022-10-10T23:16:04.358Z,16.70
2022-10-10T23:18:32.419Z,16.70
2022-10-10T23:21:00.126Z,16.70
2022-10-10T23:23:27.475Z,16.60
2022-10-10T23:25:55.172Z,16.80
2022-10-10T23:28:23.502Z,16.60
2022-10-10T23:30:50.915Z,16.70
2022-10-10T23:33:18.330Z,16.70
2022-10-10T23:35:57.341Z,16.60
2022-10-10T23:38:24.825Z,16.60
2022-10-10T23:40:52.202Z,16.60
2022-10-10T23:43:19.548Z,16.50
2022-10-10T23:45:47.887Z,16.40
2022-10-10T23:48:16.123Z,16.50
2022-10-10T23:50:44.095Z,16.70
2022-10-10T23:53:12.264Z,16.50
2022-10-10T23:55:39.967Z,16.50
2022-10-10T23:58:07.694Z,16.50
